Time;durP1;ratioP1;P1;durP2;ratioP2;P2;SDS_P1;SDS_P2;PMS_P1;PMS_P2;Temp;Humidity;BMP_temperature;BMP_pressure;BME280_temperature;BME280_humidity;BME280_pressure;Samples;Min_cycle;Max_cycle;Signal;HPM_P1;HPM_P2
2021/07/17 00:00:56;;;;;;;22.77;9.63;;;15.50;99.90;;;;;;5046651;28;20041;-64
2021/07/17 00:03:22;;;;;;;19.58;8.70;;;15.50;99.90;;;;;;5047557;28;20041;-64
2021/07/17 00:05:47;;;;;;;20.10;8.63;;;15.40;99.90;;;;;;5047429;28;20104;-64
2021/07/17 00:08:13;;;;;;;26.52;9.38;;;15.30;99.90;;;;;;5047280;28;20120;-64
2021/07/17 00:10:49;;;;;;;23.23;9.45;;;15.30;99.90;;;;;;5045627;28;20053;-64
2021/07/17 00:13:17;;;;;;;22.00;8.35;;;15.30;99.90;;;;;;5052012;28;20519;-64
2021/07/17 00:15:43;;;;;;;26.60;8.07;;;15.30;99.90;;;;;;5066835;28;20057;-64
2021/07/17 00:18:09;;;;;;;23.33;8.10;;;15.30;99.90;;;;;;5061220;28;20099;-64
2021/07/17 00:20:35;;;;;;;26.05;8.38;;;15.20;99.90;;;;;;5053386;28;20040;-64
2021/07/17 00:23:01;;;;;;;21.33;7.55;;;15.20;99.90;;;;;;5066386;28;20045;-64
2021/07/17 00:25:27;;;;;;;23.13;8.20;;;15.20;99.90;;;;;;5066054;28;20040;-64
2021/07/17 00:27:54;;;;;;;23.35;9.35;;;15.10;99.90;;;;;;5066182;28;20067;-64
2021/07/17 00:30:21;;;;;;;26.02;8.68;;;15.20;99.90;;;;;;5065911;28;20049;-64
2021/07/17 00:32:47;;;;;;;23.63;8.90;;;15.20;99.90;;;;;;5066421;28;20464;-64
2021/07/17 00:35:13;;;;;;;22.83;8.45;;;15.20;99.90;;;;;;5065612;28;20047;-64
2021/07/17 00:37:39;;;;;;;23.48;9.13;;;15.20;99.90;;;;;;5066066;28;20048;-64
2021/07/17 00:40:07;;;;;;;24.95;8.43;;;15.20;99.90;;;;;;5066083;28;20041;-64
2021/07/17 00:42:34;;;;;;;19.75;8.63;;;15.20;99.90;;;;;;5065723;28;20108;-65
2021/07/17 00:45:00;;;;;;;24.88;7.78;;;15.20;99.90;;;;;;5065269;28;20091;-64
2021/07/17 00:47:26;;;;;;;22.20;8.10;;;15.20;99.90;;;;;;5065922;28;20036;-64
2021/07/17 00:49:52;;;;;;;24.30;8.40;;;15.20;99.90;;;;;;5047066;28;20049;-64
2021/07/17 00:52:18;;;;;;;23.55;7.65;;;15.20;99.90;;;;;;5045927;28;20052;-64
2021/07/17 00:54:45;;;;;;;21.73;7.90;;;15.20;99.90;;;;;;5063632;28;20041;-64
2021/07/17 00:57:12;;;;;;;28.13;8.50;;;15.20;99.90;;;;;;5055312;28;20105;-64
2021/07/17 00:59:41;;;;;;;24.58;7.72;;;15.20;99.90;;;;;;5044570;28;20042;-64
2021/07/17 01:02:08;;;;;;;24.55;7.05;;;15.10;99.90;;;;;;5046599;28;20049;-64
2021/07/17 01:04:35;;;;;;;26.02;9.23;;;15.10;99.90;;;;;;5063804;28;20041;-64
2021/07/17 01:07:01;;;;;;;17.45;8.00;;;15.10;99.90;;;;;;5065589;28;20049;-64
2021/07/17 01:09:27;;;;;;;22.25;7.85;;;15.10;99.90;;;;;;5061332;28;20049;-64
2021/07/17 01:11:55;;;;;;;18.45;7.90;;;15.10;99.90;;;;;;5056367;28;20068;-64
2021/07/17 01:14:21;;;;;;;20.55;7.15;;;15.10;99.90;;;;;;5065348;28;20904;-64
2021/07/17 01:16:47;;;;;;;18.05;8.38;;;15.10;99.90;;;;;;5065127;28;20105;-64
2021/07/17 01:19:13;;;;;;;16.40;7.90;;;15.10;99.90;;;;;;5061699;28;20037;-64
2021/07/17 01:21:39;;;;;;;20.38;6.88;;;15.10;99.90;;;;;;5045767;28;20099;-65
2021/07/17 01:24:05;;;;;;;19.40;7.47;;;15.10;99.90;;;;;;5047279;28;20446;-64
2021/07/17 01:26:31;;;;;;;18.27;6.90;;;15.00;99.90;;;;;;5053937;28;20073;-64
2021/07/17 01:28:57;;;;;;;18.23;7.30;;;15.00;99.90;;;;;;5064977;28;20511;-64
2021/07/17 01:31:24;;;;;;;18.50;7.72;;;15.00;99.90;;;;;;5065915;28;20045;-64
2021/07/17 01:33:49;;;;;;;21.85;8.20;;;15.00;99.90;;;;;;5065069;28;20100;-65
2021/07/17 01:36:15;;;;;;;17.90;7.70;;;15.00;99.90;;;;;;5052925;28;20049;-64
2021/07/17 01:38:42;;;;;;;21.67;8.40;;;15.00;99.90;;;;;;5065265;28;20055;-64
2021/07/17 01:41:09;;;;;;;18.35;7.82;;;14.90;99.90;;;;;;5064852;28;20136;-64
2021/07/17 01:43:36;;;;;;;24.98;7.90;;;14.90;99.90;;;;;;5064798;28;20072;-64
2021/07/17 01:46:02;;;;;;;24.23;8.27;;;14.90;99.90;;;;;;5049988;28;20072;-64
2021/07/17 01:48:28;;;;;;;16.35;7.50;;;14.90;99.90;;;;;;5064897;28;20041;-65
2021/07/17 01:50:54;;;;;;;18.00;7.28;;;14.90;99.90;;;;;;5064850;28;20523;-64
2021/07/17 01:53:23;;;;;;;21.10;8.13;;;14.90;99.90;;;;;;5065475;28;20045;-64
2021/07/17 01:55:49;;;;;;;19.77;7.28;;;14.90;99.90;;;;;;5064368;28;20102;-64
2021/07/17 01:58:15;;;;;;;19.45;7.53;;;14.90;99.90;;;;;;5045064;28;20042;-64
2021/07/17 02:00:41;;;;;;;18.73;7.72;;;15.00;99.90;;;;;;5045490;28;20057;-65
2021/07/17 02:03:08;;;;;;;21.73;7.53;;;14.90;99.90;;;;;;5068852;28;20037;-64
2021/07/17 02:05:34;;;;;;;18.10;7.47;;;14.90;99.90;;;;;;5068739;28;20045;-64
2021/07/17 02:08:00;;;;;;;20.42;8.02;;;15.00;99.90;;;;;;5068953;28;20377;-64
2021/07/17 02:10:29;;;;;;;20.98;7.40;;;14.90;99.90;;;;;;5068921;28;20045;-64
2021/07/17 02:13:10;;;;;;;23.25;7.95;;;14.90;99.90;;;;;;5068837;28;20074;-65
2021/07/17 02:15:45;;;;;;;20.27;7.40;;;14.90;99.90;;;;;;5068649;28;20450;-64
2021/07/17 02:18:13;;;;;;;27.50;8.20;;;15.00;99.90;;;;;;5069298;28;20041;-64
2021/07/17 02:20:40;;;;;;;21.85;8.52;;;15.00;99.90;;;;;;5066267;28;20109;-64
2021/07/17 02:23:06;;;;;;;22.05;7.25;;;15.00;99.90;;;;;;5048719;28;20100;-64
2021/07/17 02:25:32;;;;;;;23.92;7.82;;;15.10;99.90;;;;;;5048723;28;20068;-64
2021/07/17 02:27:59;;;;;;;25.25;8.07;;;15.10;99.90;;;;;;5048407;28;20047;-64
2021/07/17 02:30:27;;;;;;;17.00;6.55;;;15.10;99.90;;;;;;5048599;28;20105;-64
2021/07/17 02:32:52;;;;;;;21.27;6.78;;;15.20;99.90;;;;;;5048730;28;20041;-64
2021/07/17 02:35:18;;;;;;;21.02;7.00;;;15.20;99.90;;;;;;5063665;28;20079;-64
2021/07/17 02:37:44;;;;;;;23.02;6.95;;;15.20;99.90;;;;;;5066706;28;20484;-64
2021/07/17 02:40:10;;;;;;;23.92;6.22;;;15.30;99.90;;;;;;5068153;28;20044;-64
2021/07/17 02:42:36;;;;;;;17.60;5.70;;;15.30;99.90;;;;;;5068232;28;20424;-64
2021/07/17 02:45:06;;;;;;;19.08;6.53;;;15.40;99.90;;;;;;5067035;28;20049;-64
2021/07/17 02:47:32;;;;;;;18.85;6.47;;;15.40;99.90;;;;;;5068647;28;20045;-64
2021/07/17 02:49:58;;;;;;;14.35;5.82;;;15.50;99.90;;;;;;5068335;28;20067;-64
2021/07/17 02:52:24;;;;;;;11.73;6.00;;;15.50;99.90;;;;;;5068128;28;20492;-64
2021/07/17 02:54:50;;;;;;;21.48;7.15;;;15.50;99.90;;;;;;5068609;28;20051;-64
2021/07/17 02:57:16;;;;;;;20.08;6.65;;;15.60;99.90;;;;;;5060898;28;20046;-64
2021/07/17 02:59:42;;;;;;;16.90;6.60;;;15.60;99.90;;;;;;5047698;28;20046;-64
2021/07/17 03:02:08;;;;;;;23.42;6.72;;;15.60;99.90;;;;;;5048226;28;20125;-64
2021/07/17 03:04:34;;;;;;;21.35;6.28;;;15.60;99.90;;;;;;5048062;28;20051;-64
2021/07/17 03:06:59;;;;;;;19.40;5.10;;;15.60;99.90;;;;;;5067139;28;20120;-64
2021/07/17 03:09:25;;;;;;;16.90;5.43;;;15.60;99.90;;;;;;5068152;28;20045;-64
2021/07/17 03:11:51;;;;;;;18.65;6.50;;;15.70;99.90;;;;;;5067703;28;20492;-64
2021/07/17 03:14:17;;;;;;;20.42;6.53;;;15.70;99.90;;;;;;5066722;28;20075;-64
2021/07/17 03:16:43;;;;;;;21.60;6.28;;;15.70;99.90;;;;;;5067424;28;20041;-64
2021/07/17 03:19:09;;;;;;;20.02;5.85;;;15.70;99.90;;;;;;5067656;28;20053;-64
2021/07/17 03:21:35;;;;;;;20.40;6.03;;;15.70;99.90;;;;;;5067166;28;20037;-64
2021/07/17 03:24:04;;;;;;;21.55;6.10;;;15.70;99.90;;;;;;5046710;28;20056;-64
2021/07/17 03:26:30;;;;;;;22.60;6.07;;;15.70;99.90;;;;;;5046172;28;20097;-64
2021/07/17 03:28:57;;;;;;;20.40;6.72;;;15.70;99.90;;;;;;5047445;28;20053;-64
2021/07/17 03:31:31;;;;;;;23.77;6.25;;;15.70;99.90;;;;;;5047475;28;20053;-64
2021/07/17 03:33:58;;;;;;;16.23;5.38;;;15.70;99.90;;;;;;5055766;28;20041;-64
2021/07/17 03:36:24;;;;;;;17.73;5.72;;;15.70;99.90;;;;;;5052379;28;20050;-64
2021/07/17 03:38:51;;;;;;;17.05;5.80;;;15.70;99.90;;;;;;5046993;28;20045;-64
2021/07/17 03:41:17;;;;;;;20.63;5.22;;;15.70;99.90;;;;;;5051074;28;20061;-64
2021/07/17 03:43:44;;;;;;;17.13;5.45;;;15.70;99.90;;;;;;5067108;28;20045;-64
2021/07/17 03:46:10;;;;;;;17.27;5.43;;;15.70;99.90;;;;;;5067097;28;20075;-64
2021/07/17 03:48:36;;;;;;;18.88;5.63;;;15.70;99.90;;;;;;5067162;28;20052;-64
2021/07/17 03:51:02;;;;;;;20.20;5.57;;;15.70;99.90;;;;;;5066717;28;20101;-64
2021/07/17 03:53:28;;;;;;;17.38;5.38;;;15.70;99.90;;;;;;5066832;28;20115;-64
2021/07/17 03:55:55;;;;;;;15.65;4.63;;;15.70;99.90;;;;;;5066430;28;20045;-64
2021/07/17 03:58:22;;;;;;;25.55;5.63;;;15.70;99.90;;;;;;5046823;28;20048;-64
2021/07/17 04:00:48;;;;;;;13.88;4.40;;;15.80;99.90;;;;;;5047194;28;20109;-64
2021/07/17 04:03:14;;;;;;;17.63;4.97;;;15.80;99.90;;;;;;5047152;28;20061;-64
2021/07/17 04:05:40;;;;;;;15.13;4.93;;;15.80;99.90;;;;;;5046788;28;20603;-64
2021/07/17 04:08:06;;;;;;;17.80;6.13;;;15.80;99.90;;;;;;5066347;28;20100;-64
2021/07/17 04:10:32;;;;;;;15.15;4.57;;;15.80;99.90;;;;;;5066700;28;20104;-64
2021/07/17 04:12:58;;;;;;;20.00;4.78;;;15.80;99.90;;;;;;5066454;28;20075;-64
2021/07/17 04:15:24;;;;;;;15.43;4.93;;;15.80;99.90;;;;;;5066520;28;20049;-64
2021/07/17 04:17:50;;;;;;;16.13;5.03;;;15.80;99.90;;;;;;5066213;28;20516;-64
2021/07/17 04:20:16;;;;;;;24.00;5.22;;;15.80;99.90;;;;;;5066530;28;20515;-64
2021/07/17 04:22:42;;;;;;;18.45;5.43;;;15.80;99.90;;;;;;5061230;28;20038;-64
2021/07/17 04:25:08;;;;;;;16.08;4.75;;;15.90;99.90;;;;;;5047105;28;20049;-65
2021/07/17 04:27:35;;;;;;;13.98;5.07;;;15.90;99.90;;;;;;5046893;28;20041;-64
2021/07/17 04:30:00;;;;;;;18.25;5.45;;;15.90;99.90;;;;;;5046972;28;20045;-64
2021/07/17 04:32:27;;;;;;;10.95;4.60;;;16.00;99.90;;;;;;5046740;28;20033;-64
2021/07/17 04:34:53;;;;;;;12.55;4.32;;;16.00;99.90;;;;;;5057864;28;20104;-64
2021/07/17 04:37:19;;;;;;;13.50;4.13;;;16.00;99.90;;;;;;5066055;28;20051;-65
2021/07/17 04:39:48;;;;;;;12.80;4.38;;;16.00;99.90;;;;;;5066000;28;20052;-64
2021/07/17 04:42:14;;;;;;;15.63;4.47;;;16.00;99.90;;;;;;5065726;28;20044;-64
2021/07/17 04:44:40;;;;;;;12.88;4.32;;;16.10;99.90;;;;;;5065641;28;20053;-64
2021/07/17 04:47:06;;;;;;;18.83;4.97;;;16.10;99.90;;;;;;5065767;28;20047;-64
2021/07/17 04:49:32;;;;;;;11.07;4.18;;;16.10;99.90;;;;;;5065510;28;20045;-65
2021/07/17 04:51:58;;;;;;;15.52;4.55;;;16.20;99.90;;;;;;5056105;28;20623;-64
2021/07/17 04:54:24;;;;;;;13.88;4.38;;;16.20;99.90;;;;;;5045992;28;20073;-64
2021/07/17 04:56:49;;;;;;;12.43;4.18;;;16.20;99.90;;;;;;5057027;28;20052;-64
2021/07/17 04:59:15;;;;;;;11.02;4.70;;;16.30;99.90;;;;;;5065682;28;20029;-64
2021/07/17 05:01:41;;;;;;;15.93;4.93;;;16.30;99.90;;;;;;5065611;28;20043;-64
2021/07/17 05:04:07;;;;;;;17.67;4.78;;;16.30;99.90;;;;;;5065886;28;20052;-64
2021/07/17 05:06:32;;;;;;;18.13;4.90;;;16.40;99.90;;;;;;5065992;28;20123;-64
2021/07/17 05:08:58;;;;;;;17.10;4.72;;;16.40;99.90;;;;;;5065401;28;20063;-64
2021/07/17 05:11:24;;;;;;;16.75;5.18;;;16.40;99.90;;;;;;5065713;28;20045;-64
2021/07/17 05:13:50;;;;;;;17.92;4.65;;;16.50;99.90;;;;;;5065651;28;20044;-64
2021/07/17 05:16:15;;;;;;;12.00;4.80;;;16.50;99.90;;;;;;5062110;28;20052;-64
2021/07/17 05:18:41;;;;;;;14.02;4.38;;;16.50;99.90;;;;;;5045267;28;20041;-64
2021/07/17 05:21:07;;;;;;;13.82;5.03;;;16.60;99.90;;;;;;5045479;28;20091;-64
2021/07/17 05:23:33;;;;;;;13.75;4.28;;;16.60;99.90;;;;;;5057276;28;20049;-64
2021/07/17 05:25:59;;;;;;;16.15;4.70;;;16.60;99.90;;;;;;5065414;28;20118;-64
2021/07/17 05:28:24;;;;;;;14.15;5.13;;;16.70;99.90;;;;;;5064976;28;20097;-64
2021/07/17 05:30:50;;;;;;;15.18;5.03;;;16.70;99.90;;;;;;5065406;28;20047;-64
2021/07/17 05:33:17;;;;;;;20.35;6.10;;;16.70;99.90;;;;;;5065178;28;20043;-64
2021/07/17 05:35:43;;;;;;;11.10;4.47;;;16.80;99.90;;;;;;5064784;28;20041;-64
2021/07/17 05:38:09;;;;;;;13.75;5.28;;;16.80;99.90;;;;;;5065122;28;20055;-64
2021/07/17 05:40:35;;;;;;;18.23;4.85;;;16.90;99.90;;;;;;5064926;28;20037;-64
2021/07/17 05:43:01;;;;;;;15.63;4.85;;;16.90;99.90;;;;;;5060024;28;20045;-64
2021/07/17 05:45:27;;;;;;;14.25;4.65;;;16.90;99.90;;;;;;5064348;28;20071;-64
2021/07/17 05:47:52;;;;;;;11.25;4.47;;;17.00;99.90;;;;;;5065126;28;20041;-64
2021/07/17 05:50:19;;;;;;;15.27;4.22;;;17.00;99.90;;;;;;5063989;28;20069;-64
2021/07/17 05:52:46;;;;;;;14.85;5.05;;;17.00;99.90;;;;;;5062108;28;20075;-64
2021/07/17 05:55:12;;;;;;;14.20;5.15;;;17.10;99.90;;;;;;5065059;28;20041;-64
2021/07/17 05:57:38;;;;;;;14.73;4.60;;;17.10;99.90;;;;;;5065061;28;20582;-64
2021/07/17 06:00:09;;;;;;;13.57;4.28;;;17.10;99.90;;;;;;5064851;28;20052;-64
2021/07/17 06:02:34;;;;;;;15.25;4.90;;;17.20;99.90;;;;;;5065159;28;20131;-64
2021/07/17 06:05:00;;;;;;;13.98;5.57;;;17.20;99.90;;;;;;5065293;28;20049;-64
2021/07/17 06:07:26;;;;;;;13.45;5.10;;;17.30;99.90;;;;;;5064999;28;20052;-64
2021/07/17 06:09:52;;;;;;;13.60;5.30;;;17.30;99.90;;;;;;5064717;28;20040;-64
2021/07/17 06:12:18;;;;;;;11.50;4.15;;;17.40;99.90;;;;;;5064965;28;20397;-64
2021/07/17 06:14:44;;;;;;;14.23;4.65;;;17.40;99.90;;;;;;5064968;28;20127;-64
2021/07/17 06:17:12;;;;;;;10.60;4.22;;;17.40;99.90;;;;;;5065145;28;20511;-64
2021/07/17 06:19:42;;;;;;;12.52;4.50;;;17.50;99.90;;;;;;5061171;28;20037;-63
2021/07/17 06:22:08;;;;;;;;;;;17.50;99.90;;;;;;5048752;28;20044;-63
2021/07/17 06:24:34;;;;;;;17.48;4.47;;;17.60;99.90;;;;;;5059073;28;19921;-63
2021/07/17 06:27:00;;;;;;;12.07;3.83;;;17.60;99.90;;;;;;5048009;28;20080;-63
2021/07/17 06:29:26;;;;;;;11.70;4.07;;;17.70;99.90;;;;;;5047644;28;20037;-64
2021/07/17 06:31:52;;;;;;;8.93;3.38;;;17.70;99.90;;;;;;5043573;28;20038;-62
2021/07/17 06:34:18;;;;;;;12.25;3.80;;;17.80;99.90;;;;;;5047024;28;20042;-63
2021/07/17 06:36:44;;;;;;;10.00;3.70;;;17.80;99.90;;;;;;5056600;28;20508;-63
2021/07/17 06:39:09;;;;;;;7.72;3.80;;;17.90;99.90;;;;;;5063336;28;20049;-64
2021/07/17 06:41:35;;;;;;;12.38;3.85;;;17.90;99.90;;;;;;5059755;28;20053;-64
2021/07/17 06:44:01;;;;;;;10.50;4.28;;;18.00;99.90;;;;;;5056864;28;20056;-63
2021/07/17 06:46:27;;;;;;;11.13;4.05;;;18.00;99.90;;;;;;5045078;28;20064;-63
2021/07/17 06:48:53;;;;;;;9.95;3.67;;;18.00;99.90;;;;;;5047202;28;20046;-64
2021/07/17 06:51:18;;;;;;;10.30;3.88;;;18.10;99.90;;;;;;5051193;28;20048;-63
2021/07/17 06:53:44;;;;;;;8.70;3.65;;;18.10;99.90;;;;;;5059129;28;20493;-63
2021/07/17 06:56:10;;;;;;;10.93;3.90;;;18.20;99.90;;;;;;5051613;28;20061;-64
2021/07/17 06:58:36;;;;;;;9.90;4.22;;;18.20;99.90;;;;;;5051350;28;20037;-64
2021/07/17 07:01:01;;;;;;;10.00;3.55;;;18.30;99.90;;;;;;5057163;28;20099;-64
2021/07/17 07:03:27;;;;;;;13.40;3.58;;;18.30;99.90;;;;;;5053635;28;20042;-63
2021/07/17 07:05:53;;;;;;;7.85;3.33;;;18.30;99.90;;;;;;5047424;28;20064;-64
2021/07/17 07:08:20;;;;;;;14.23;3.53;;;18.30;99.90;;;;;;5047412;28;20084;-62
2021/07/17 07:10:45;;;;;;;9.05;3.17;;;18.40;99.90;;;;;;5047194;28;20045;-62
2021/07/17 07:13:13;;;;;;;11.85;3.40;;;18.40;99.90;;;;;;5047433;28;20052;-62
2021/07/17 07:15:39;;;;;;;10.63;3.60;;;18.50;99.90;;;;;;5047364;28;20041;-62
2021/07/17 07:18:06;;;;;;;8.43;3.15;;;18.50;99.90;;;;;;5047614;28;20080;-62
2021/07/17 07:20:32;;;;;;;11.57;3.40;;;18.50;99.90;;;;;;5047221;28;20045;-62
2021/07/17 07:22:59;;;;;;;12.32;3.50;;;18.60;99.90;;;;;;5060170;28;20052;-62
2021/07/17 07:25:25;;;;;;;9.80;2.72;;;18.60;99.90;;;;;;5058549;28;20045;-62
2021/07/17 07:27:51;;;;;;;10.80;3.28;;;18.70;99.90;;;;;;5046972;28;20045;-62
2021/07/17 07:30:17;;;;;;;5.70;2.75;;;18.70;99.90;;;;;;5046688;28;20046;-62
2021/07/17 07:32:43;;;;;;;8.45;3.50;;;18.80;99.90;;;;;;5047037;28;20045;-62
2021/07/17 07:35:09;;;;;;;8.30;3.20;;;18.80;99.90;;;;;;5054743;28;20105;-62
2021/07/17 07:37:35;;;;;;;8.60;3.53;;;18.80;99.90;;;;;;5047192;28;20042;-63
2021/07/17 07:40:02;;;;;;;9.02;2.75;;;18.90;99.90;;;;;;5051894;28;20047;-62
2021/07/17 07:42:28;;;;;;;8.52;3.28;;;18.90;99.90;;;;;;5047492;28;20045;-63
2021/07/17 07:44:54;;;;;;;10.60;3.42;;;19.00;99.90;;;;;;5052955;28;20052;-63
2021/07/17 07:47:20;;;;;;;8.57;2.88;;;19.00;99.90;;;;;;5049399;28;20079;-63
2021/07/17 07:49:46;;;;;;;9.88;3.08;;;19.10;99.90;;;;;;5050951;28;20069;-64
2021/07/17 07:52:13;;;;;;;9.73;3.03;;;19.10;99.90;;;;;;5048739;28;20128;-65
2021/07/17 07:54:39;;;;;;;11.73;2.95;;;19.10;99.90;;;;;;5049409;28;20053;-65
2021/07/17 07:57:05;;;;;;;9.07;3.35;;;19.10;99.90;;;;;;5067272;28;20041;-65
2021/07/17 07:59:31;;;;;;;7.03;2.67;;;19.10;99.90;;;;;;5066713;28;20076;-65
2021/07/17 08:01:57;;;;;;;8.95;2.65;;;19.10;99.90;;;;;;5065888;28;20118;-65
2021/07/17 08:04:23;;;;;;;9.35;2.45;;;19.20;99.90;;;;;;5066414;28;20448;-65
2021/07/17 08:06:49;;;;;;;8.13;2.47;;;19.20;99.90;;;;;;5066771;28;20041;-65
2021/07/17 08:09:15;;;;;;;5.90;2.72;;;19.30;99.90;;;;;;5065805;28;20056;-65
2021/07/17 08:11:40;;;;;;;7.13;2.50;;;19.40;99.90;;;;;;5065786;28;20492;-65
2021/07/17 08:14:06;;;;;;;6.47;2.45;;;19.40;99.90;;;;;;5066131;28;20044;-65
2021/07/17 08:16:32;;;;;;;7.85;2.58;;;19.50;99.90;;;;;;5065828;28;20063;-65
2021/07/17 08:18:58;;;;;;;6.20;2.38;;;19.50;99.90;;;;;;5066316;28;20045;-65
2021/07/17 08:21:23;;;;;;;7.40;2.60;;;19.50;99.90;;;;;;5065702;28;20037;-65
2021/07/17 08:23:49;;;;;;;9.07;2.83;;;19.50;99.90;;;;;;5062604;28;20506;-65
2021/07/17 08:26:15;;;;;;;7.25;2.53;;;19.60;99.90;;;;;;5066006;28;20043;-65
2021/07/17 08:28:41;;;;;;;7.05;2.20;;;19.60;99.90;;;;;;5065580;28;20047;-65
2021/07/17 08:31:07;;;;;;;8.60;2.42;;;19.60;99.90;;;;;;5059921;28;20042;-65
2021/07/17 08:33:33;;;;;;;8.70;2.95;;;19.60;99.90;;;;;;5046693;28;20042;-65
2021/07/17 08:35:59;;;;;;;6.65;2.08;;;19.70;99.90;;;;;;5047738;28;20045;-65
2021/07/17 08:38:25;;;;;;;6.30;2.47;;;19.70;99.90;;;;;;5045424;28;20124;-65
2021/07/17 08:40:53;;;;;;;5.47;2.47;;;19.90;99.90;;;;;;5045609;28;20108;-65
2021/07/17 08:43:20;;;;;;;6.68;2.05;;;19.90;99.90;;;;;;5057960;28;20045;-65
2021/07/17 08:45:47;;;;;;;6.80;2.40;;;19.90;99.90;;;;;;5047914;28;20509;-65
2021/07/17 08:48:14;;;;;;;4.82;2.00;;;20.00;99.90;;;;;;5045684;28;20060;-65
2021/07/17 08:50:41;;;;;;;7.68;2.13;;;20.00;99.90;;;;;;5045171;28;20056;-65
2021/07/17 08:53:07;;;;;;;4.45;2.13;;;20.10;99.90;;;;;;5045544;28;20037;-65
2021/07/17 08:55:33;;;;;;;7.43;2.20;;;20.10;99.90;;;;;;5053673;28;20072;-65
2021/07/17 08:58:00;;;;;;;6.15;2.13;;;20.20;99.90;;;;;;5055736;28;20394;-65
2021/07/17 09:00:34;;;;;;;6.20;1.95;;;20.20;99.90;;;;;;5053320;28;20041;-65
2021/07/17 09:03:03;;;;;;;5.30;2.17;;;20.20;99.90;;;;;;5049011;28;20559;-65
2021/07/17 09:05:33;;;;;;;5.75;1.70;;;20.30;99.90;;;;;;5045393;28;20041;-65
2021/07/17 09:07:59;;;;;;;7.30;1.92;;;20.30;99.90;;;;;;5058469;28;20041;-66
2021/07/17 09:10:29;;;;;;;4.50;1.65;;;20.40;99.90;;;;;;5044760;28;20041;-65
2021/07/17 09:13:15;;;;;;;7.68;2.13;;;20.40;99.90;;;;;;5044803;28;20037;-65
2021/07/17 09:16:09;;;;;;;3.92;1.50;;;20.50;99.90;;;;;;5045352;28;20045;-65
2021/07/17 09:18:47;;;;;;;6.32;2.15;;;20.50;99.90;;;;;;5046142;28;20045;-65
2021/07/17 09:21:26;;;;;;;6.30;1.83;;;20.60;99.90;;;;;;5045054;28;20045;-65
2021/07/17 09:24:05;;;;;;;5.28;2.00;;;20.60;99.90;;;;;;5049018;28;20045;-65
2021/07/17 09:26:36;;;;;;;6.50;2.00;;;20.70;99.90;;;;;;5049402;28;20030;-65
2021/07/17 09:29:03;;;;;;;5.07;2.00;;;20.70;99.90;;;;;;5044678;28;20057;-65
2021/07/17 09:31:31;;;;;;;6.22;2.08;;;20.70;99.90;;;;;;5044809;28;20169;-65
2021/07/17 09:34:10;;;;;;;4.30;1.92;;;20.80;99.90;;;;;;5048164;28;20044;-65
2021/07/17 09:36:59;;;;;;;4.57;1.70;;;20.90;99.90;;;;;;5045083;28;20049;-65
2021/07/17 09:39:33;;;;;;;7.93;1.73;;;20.90;99.90;;;;;;5044994;28;20037;-65
2021/07/17 09:42:03;;;;;;;5.63;1.60;;;20.90;99.90;;;;;;5046624;28;20107;-65
2021/07/17 09:44:30;;;;;;;5.28;1.85;;;21.00;99.90;;;;;;5056994;28;20071;-65
2021/07/17 09:46:57;;;;;;;4.97;1.65;;;21.00;99.90;;;;;;5045928;28;20052;-65
2021/07/17 09:49:24;;;;;;;7.00;1.38;;;21.00;99.90;;;;;;5045242;28;20100;-65
2021/07/17 09:52:09;;;;;;;5.07;2.03;;;21.10;99.90;;;;;;5044287;28;20092;-65
2021/07/17 09:54:35;;;;;;;7.32;2.60;;;21.10;99.90;;;;;;5045611;28;20049;-65
2021/07/17 09:57:02;;;;;;;4.78;2.10;;;21.10;99.90;;;;;;5056400;28;20045;-65
2021/07/17 09:59:28;;;;;;;4.32;1.70;;;21.20;99.90;;;;;;5045030;28;20041;-65
2021/07/17 10:01:54;;;;;;;4.68;1.73;;;21.20;99.90;;;;;;5045480;28;20103;-65
2021/07/17 10:04:20;;;;;;;3.63;1.70;;;21.30;99.90;;;;;;5045245;28;20049;-65
2021/07/17 10:06:47;;;;;;;4.97;1.48;;;21.30;99.90;;;;;;5044876;28;20386;-65
2021/07/17 10:09:16;;;;;;;2.83;1.38;;;21.30;99.90;;;;;;5044449;28;20528;-65
2021/07/17 10:11:44;;;;;;;3.30;1.60;;;21.40;99.90;;;;;;5044707;28;20060;-65
2021/07/17 10:14:19;;;;;;;2.47;1.42;;;21.50;99.90;;;;;;5044477;28;20128;-65
2021/07/17 10:16:50;;;;;;;4.85;1.30;;;21.50;99.90;;;;;;5045191;28;20049;-65
2021/07/17 10:19:18;;;;;;;3.50;1.80;;;21.50;99.90;;;;;;5044885;28;20061;-65
2021/07/17 10:21:44;;;;;;;6.72;1.70;;;21.60;99.90;;;;;;5044841;28;20046;-65
2021/07/17 10:24:12;;;;;;;5.57;1.60;;;21.60;99.90;;;;;;5053983;28;20064;-65
2021/07/17 10:26:38;;;;;;;3.53;1.48;;;21.60;99.90;;;;;;5063085;28;20045;-65
2021/07/17 10:29:06;;;;;;;6.07;1.55;;;21.60;99.90;;;;;;5051817;28;20049;-66
2021/07/17 10:31:33;;;;;;;2.60;1.50;;;21.60;99.90;;;;;;5048458;28;20060;-65
2021/07/17 10:33:58;;;;;;;6.43;1.70;;;21.70;99.90;;;;;;5049770;28;20040;-65
2021/07/17 10:36:25;;;;;;;6.28;1.98;;;21.70;99.90;;;;;;5047906;28;20045;-65
2021/07/17 10:38:56;;;;;;;5.10;1.70;;;21.80;99.90;;;;;;5048271;28;20045;-65
2021/07/17 10:41:24;;;;;;;5.15;1.48;;;21.80;99.90;;;;;;5047892;28;20057;-65
2021/07/17 10:43:53;;;;;;;4.70;1.27;;;21.80;99.90;;;;;;5060959;28;20056;-65
2021/07/17 10:46:40;;;;;;;4.90;1.88;;;21.90;99.90;;;;;;5048454;28;20044;-65
2021/07/17 10:49:11;;;;;;;4.43;1.40;;;22.00;99.90;;;;;;5048875;28;20049;-65
2021/07/17 10:51:50;;;;;;;6.18;1.90;;;22.00;99.90;;;;;;5048364;28;20041;-65
2021/07/17 10:54:28;;;;;;;2.47;1.43;;;22.10;99.90;;;;;;5047588;28;20046;-65
2021/07/17 10:56:54;;;;;;;5.13;1.67;;;22.20;99.90;;;;;;5067779;28;20038;-65
2021/07/17 10:59:20;;;;;;;2.45;1.30;;;22.20;99.90;;;;;;5047722;28;20079;-65
2021/07/17 11:02:04;;;;;;;4.90;1.75;;;22.30;99.90;;;;;;5047765;28;20049;-65
2021/07/17 11:05:03;;;;;;;2.63;1.52;;;22.30;99.90;;;;;;5047370;28;20104;-65
2021/07/17 11:07:29;;;;;;;2.90;1.73;;;22.30;99.90;;;;;;5048301;28;20041;-65
2021/07/17 11:09:55;;;;;;;5.72;1.77;;;22.30;99.90;;;;;;5048554;28;20052;-65
2021/07/17 11:12:29;;;;;;;8.50;1.80;;;22.30;99.90;;;;;;5048386;28;20050;-65
2021/07/17 11:15:07;;;;;;;4.47;1.70;;;22.30;99.90;;;;;;5048623;28;20061;-65
2021/07/17 11:17:53;;;;;;;5.13;1.60;;;22.50;99.90;;;;;;5047657;28;20049;-66
2021/07/17 11:20:26;;;;;;;3.90;1.48;;;22.50;99.90;;;;;;5047245;28;20053;-66
2021/07/17 11:23:01;;;;;;;4.85;1.67;;;22.50;99.90;;;;;;5059324;28;20100;-66
2021/07/17 11:25:26;;;;;;;4.90;1.60;;;22.50;99.90;;;;;;5049778;28;20041;-66
2021/07/17 11:27:52;;;;;;;5.95;2.63;;;22.60;99.90;;;;;;5060413;28;20049;-66
2021/07/17 11:30:20;;;;;;;4.00;2.05;;;22.70;99.90;;;;;;5047343;28;20041;-66
2021/07/17 11:33:04;;;;;;;3.47;1.63;;;22.70;99.90;;;;;;5027738;28;20108;-62
2021/07/17 11:35:42;;;;;;;3.00;1.42;;;22.70;99.90;;;;;;5056013;28;20045;-63
2021/07/17 11:38:09;;;;;;;4.68;1.30;;;22.70;99.90;;;;;;5047974;28;21061;-64
2021/07/17 11:40:37;;;;;;;3.08;1.30;;;22.70;99.90;;;;;;5048737;28;20037;-64
2021/07/17 11:43:05;;;;;;;5.55;2.38;;;22.90;99.90;;;;;;5055232;28;20041;-63
2021/07/17 11:45:30;;;;;;;4.57;2.20;;;22.90;99.90;;;;;;5045725;28;20046;-63
2021/07/17 11:48:10;;;;;;;5.63;1.40;;;23.10;99.90;;;;;;5059136;28;20052;-64
2021/07/17 11:50:37;;;;;;;5.88;1.65;;;23.10;99.90;;;;;;5046157;28;20493;-64
2021/07/17 11:53:16;;;;;;;3.45;1.45;;;23.30;99.90;;;;;;5047088;28;20049;-68
2021/07/17 11:55:43;;;;;;;3.33;1.70;;;23.30;99.90;;;;;;5049217;28;20069;-63
2021/07/17 11:58:16;;;;;;;6.55;1.50;;;23.50;99.90;;;;;;5035046;28;20049;-65
2021/07/17 12:00:41;;;;;;;4.63;1.35;;;23.50;99.90;;;;;;5044056;28;20042;-64
2021/07/17 12:03:07;;;;;;;5.25;1.50;;;23.60;99.90;;;;;;5052655;28;20075;-67
2021/07/17 12:05:34;;;;;;;5.72;1.50;;;23.70;99.90;;;;;;5060376;28;20116;-65
2021/07/17 12:08:00;;;;;;;3.85;1.40;;;23.80;99.90;;;;;;5054369;28;20091;-64
2021/07/17 12:10:28;;;;;;;4.22;1.58;;;23.80;99.90;;;;;;5058985;28;20044;-63
2021/07/17 12:13:00;;;;;;;4.35;1.70;;;23.80;99.90;;;;;;5051025;28;20140;-63
2021/07/17 12:15:31;;;;;;;3.85;1.30;;;23.80;99.90;;;;;;5040480;28;20045;-63
2021/07/17 12:17:59;;;;;;;2.97;1.70;;;23.90;99.90;;;;;;5043496;28;20119;-63
2021/07/17 12:20:34;;;;;;;4.50;1.33;;;23.90;99.90;;;;;;5046067;28;20105;-66
2021/07/17 12:23:03;;;;;;;3.15;1.30;;;24.00;99.90;;;;;;5048969;28;20091;-66
2021/07/17 12:25:49;;;;;;;3.67;1.30;;;24.00;99.90;;;;;;5055518;28;20068;-63
2021/07/17 12:28:25;;;;;;;3.83;1.25;;;24.10;99.90;;;;;;5056956;28;20036;-63
2021/07/17 12:30:54;;;;;;;2.08;1.30;;;24.20;99.90;;;;;;5057124;28;20041;-63
2021/07/17 12:33:29;;;;;;;5.25;1.80;;;24.20;99.90;;;;;;5018786;28;20063;-63
2021/07/17 12:36:14;;;;;;;4.45;1.25;;;24.20;99.90;;;;;;5057538;28;20071;-63
2021/07/17 12:38:40;;;;;;;3.97;1.80;;;24.40;99.90;;;;;;5044713;28;20062;-63
2021/07/17 12:41:13;;;;;;;2.35;1.30;;;24.50;99.90;;;;;;5055672;28;20555;-63
2021/07/17 12:43:54;;;;;;;6.90;1.75;;;24.40;99.90;;;;;;5032691;28;20034;-63